Have a Safe July 4th! 

Flight Track Log - Related Links

Times and Time Zones

All times are in EDT time to prevent confusion due to time zone crossing. See the DAL2278 flight status page for this flight to view local times or setup timezone preferences in your user account.

Time Position Orientation Groundspeed Altitude Reporting Facility
EDT Latitude Longitude Course Direction KTS MPH feet Rate Location/Type
Fri 07:11:14 PM 40.8108 -112.0006 201° Southwest 167 192 5,200  Level Salt Lake Center
Fri 07:11:32 PM 40.8200 -112.0144 311° West 170 196 5,900 1,769 Climbing Salt Lake Center
Fri 07:12:32 PM 40.8269 -112.0942 277° West 232 267 7,500 1,981 Climbing Salt Lake Center
Fri 07:13:15 PM 40.8222 -112.1492 264° West 264 304 9,300 3,148 Climbing Salt Lake Center
Fri 07:13:33 PM 40.8158 -112.1917 259° West 275 316 10,700 2,516 Climbing Salt Lake Center
Fri 07:14:00 PM 40.5373 -112.3035 192° South  Level FlightAware Approximate
Fri 07:14:17 PM 40.7908 -112.2447 238° Southwest 297 342 11,900  Level Salt Lake Center
Fri 07:15:00 PM 40.4209 -112.3353 192° South  Level FlightAware Approximate
Fri 07:15:18 PM 40.6814 -112.2908 198° South 356 410 14,700  Level Salt Lake Center
Fri 07:16:00 PM 40.3080 -112.3710 201° Southwest  Level FlightAware Approximate
Fri 07:16:20 PM 40.5772 -112.3089 188° South 377 434 17,300  Level Salt Lake Center
Fri 07:17:22 PM 40.4697 -112.3308 189° South 392 451 19,900 2,341 Climbing Salt Lake Center
Fri 07:18:23 PM 40.3594 -112.3553 190° South 403 464 22,100 2,341 Climbing Salt Lake Center
Fri 07:19:25 PM 40.2556 -112.4167 204° Southwest 409 471 24,700 2,732 Climbing Salt Lake Center
Fri 07:20:26 PM 40.1631 -112.4822 208° Southwest 376 433 27,700 1,951 Climbing Salt Lake Center
Fri 07:21:28 PM 40.0675 -112.5497 208° Southwest 399 459 28,700 1,024 Climbing Salt Lake Center
Fri 07:22:29 PM 39.9456 -112.6358 208° Southwest 419 482 29,800 1,463 Climbing Salt Lake Center
Fri 07:23:31 PM 39.8425 -112.7064 208° Southwest 418 481 31,700 1,065 Climbing Salt Lake Center
Fri 07:24:33 PM 39.7544 -112.7675 208° Southwest 413 475 32,000 146 Climbing Salt Lake Center
Fri 07:25:34 PM 39.6281 -112.8378 203° Southwest 416 479 32,000  Level Salt Lake Center
Fri 07:26:36 PM 39.5133 -112.8739 194° South 423 487 32,000  Level Salt Lake Center
Fri 07:27:38 PM 39.3967 -112.9119 194° South 431 496 32,000  Level Salt Lake Center
Fri 07:28:39 PM 39.2806 -112.9511 195° South 431 496 32,000  Level Salt Lake Center
Fri 07:29:41 PM 39.1636 -112.9894 194° South 434 499 32,000  Level Salt Lake Center
Fri 07:30:43 PM 39.0472 -113.0269 194° South 432 497 32,000 629 Level Salt Lake Center
Fri 07:31:45 PM 38.9292 -113.0622 193° South 435 501 33,300 1,463 Climbing Salt Lake Center
Fri 07:32:46 PM 38.7906 -113.1072 194° South 431 496 35,000 1,317 Climbing Salt Lake Center
Fri 07:33:48 PM 38.6767 -113.1450 195° South 426 490 36,000 484 Climbing Salt Lake Center
Fri 07:34:50 PM 38.5642 -113.1797 194° South 420 483 36,000  Level Salt Lake Center
Fri 07:35:52 PM 38.4508 -113.2164 194° South 420 483 36,000  Level Salt Lake Center
Fri 07:36:53 PM 38.3358 -113.2517 194° South 425 489 36,000  Level Salt Lake Center
Fri 07:37:55 PM 38.2214 -113.2869 194° South 425 489 36,000  Level Salt Lake Center
Fri 07:38:57 PM 38.0814 -113.3306 194° South 433 498 36,000  Level Salt Lake Center
Fri 07:39:58 PM 37.9656 -113.3669 194° South 432 497 36,000  Level Salt Lake Center
Fri 07:41:00 PM 37.8567 -113.4231 202° Southwest 426 490 36,000  Level Salt Lake Center
Fri 07:42:02 PM 37.7578 -113.4992 211° Southwest 421 484 36,000  Level Salt Lake Center
Fri 07:43:03 PM 37.6600 -113.5775 212° Southwest 420 483 36,000  Level Salt Lake Center
Fri 07:44:05 PM 37.5622 -113.6550 212° Southwest 419 482 36,000  Level Salt Lake Center
Fri 07:45:07 PM 37.4447 -113.7478 212° Southwest 418 481 36,000  Level Salt Lake Center
Fri 07:46:09 PM 37.3467 -113.8253 212° Southwest 418 481 36,000  Level Salt Lake Center
Fri 07:47:10 PM 37.2469 -113.9008 211° Southwest 420 483 36,000  Level Salt Lake Center
Fri 07:48:12 PM 37.1478 -113.9786 212° Southwest 421 484 36,000  Level Salt Lake Center
Fri 07:49:04 PM 37.0578 -114.0478 212° Southwest 422 486 36,000  Level Los Angeles Center
Fri 07:50:06 PM 36.9575 -114.1261 212° Southwest 423 487 36,000  Level Los Angeles Center
Fri 07:51:08 PM 36.8567 -114.2036 212° Southwest 424 488 36,000  Level Los Angeles Center
Fri 07:52:11 PM 36.7572 -114.2811 212° Southwest 421 484 36,000  Level Los Angeles Center
Fri 07:53:13 PM 36.6567 -114.3583 212° Southwest 422 486 36,000  Level Los Angeles Center
Fri 07:54:15 PM 36.5353 -114.4508 211° Southwest 424 488 36,000  Level Los Angeles Center
Fri 07:55:17 PM 36.4356 -114.5294 212° Southwest 424 488 36,000  Level Los Angeles Center
Fri 07:56:31 PM 36.3333 -114.6067 211° Southwest 426 490 36,000  Level Los Angeles Center
Fri 07:57:33 PM 36.2014 -114.6781 204° Southwest 428 493 36,000  Level Los Angeles Center
Fri 07:58:36 PM 36.0908 -114.7381 204° Southwest 430 495 36,000  Level Los Angeles Center
Fri 07:59:38 PM 35.9808 -114.7958 203° Southwest 428 493 36,000  Level Los Angeles Center
Fri 08:00:40 PM 35.8492 -114.8681 204° Southwest 428 493 36,000  Level Los Angeles Center
Fri 08:01:42 PM 35.7386 -114.9256 203° Southwest 428 493 36,000  Level Los Angeles Center
Fri 08:02:44 PM 35.6286 -114.9844 204° Southwest 429 494 36,000  Level Los Angeles Center
Fri 08:03:46 PM 35.5167 -115.0436 203° Southwest 434 499 36,000 -97 Level Los Angeles Center
Fri 08:04:48 PM 35.4033 -115.1000 202° Southwest 438 504 35,800 -1,694 Descending Los Angeles Center
Fri 08:05:50 PM 35.2892 -115.1525 201° Southwest 436 502 32,500 -2,710 Descending Los Angeles Center
Fri 08:06:52 PM 35.1708 -115.2047 200° South 446 513 30,200 -1,210 Descending Los Angeles Center
Fri 08:07:54 PM 35.0422 -115.2639 201° Southwest 449 517 30,000 -97 Descending Los Angeles Center
Fri 08:08:56 PM 34.9139 -115.3217 200° South 445 512 30,000  Level Los Angeles Center
Fri 08:09:59 PM 34.7989 -115.3733 200° South 442 509 30,000  Level Los Angeles Center
Fri 08:11:01 PM 34.6828 -115.4250 200° South 442 509 30,000  Level Los Angeles Center
Fri 08:12:03 PM 34.5633 -115.4803 201° Southwest 448 516 30,000 -435 Level Los Angeles Center
Fri 08:13:05 PM 34.4469 -115.5303 200° South 445 512 29,100 -919 Descending Los Angeles Center
Fri 08:14:07 PM 34.3292 -115.5839 201° Southwest 451 519 28,100 -532 Descending Los Angeles Center
Fri 08:15:09 PM 34.1897 -115.6461 200° South 447 514 28,000 -48 Descending Los Angeles Center
Fri 08:16:11 PM 34.0725 -115.6983 200° South 450 518 28,000  Level Los Angeles Center
Fri 08:17:13 PM 33.9547 -115.7497 200° South 449 517 28,000 -290 Level Los Angeles Center
Fri 08:18:15 PM 33.8386 -115.8014 200° South 446 513 27,400 -774 Descending Los Angeles Center
Fri 08:19:17 PM 33.7269 -115.8517 201° Southwest 431 496 26,400 -968 Descending Los Angeles Center
Fri 08:20:19 PM 33.6233 -115.8958 200° South 401 461 25,400 -1,161 Descending Los Angeles Center
Fri 08:21:21 PM 33.5086 -115.9608 205° Southwest 388 447 24,000 -672 Descending Los Angeles Center
Fri 08:22:24 PM 33.4483 -116.0617 234° Southwest 370 426 24,000 -1,152 Level Los Angeles Center
Fri 08:23:26 PM 33.3881 -116.1639 235° Southwest 375 432 21,600 -2,371 Descending Los Angeles Center
Fri 08:24:28 PM 33.3231 -116.2586 231° Southwest 373 429 19,100 -2,274 Descending Los Angeles Center
Fri 08:25:30 PM 33.2319 -116.3119 206° Southwest 364 419 16,900 -2,177 Descending Los Angeles Center
Fri 08:26:32 PM 33.1281 -116.3731 206° Southwest 353 406 14,600 -1,935 Descending Los Angeles Center
Fri 08:27:34 PM 33.0497 -116.4189 206° Southwest 337 388 12,900 -1,403 Descending Los Angeles Center
Fri 08:28:36 PM 32.9678 -116.4675 206° Southwest 332 382 11,700 -1,258 Descending Los Angeles Center
Fri 08:29:38 PM 32.8936 -116.5131 207° Southwest 308 354 10,300 -1,355 Descending Los Angeles Center
Fri 08:30:40 PM 32.8356 -116.6036 233° Southwest 297 342 8,900 -1,161 Descending Los Angeles Center
Fri 08:31:42 PM 32.7956 -116.6844 240° Southwest 289 333 7,900 -1,258 Descending Los Angeles Center
Fri 08:32:44 PM 32.7553 -116.7653 239° Southwest 286 329 6,300 -1,113 Descending Los Angeles Center
Fri 08:33:46 PM 32.7189 -116.8403 240° Southwest 272 313 5,600 -893 Descending Los Angeles Center
Fri 08:34:45 PM 32.6833 -116.9167 241° Southwest 230 265 4,500 -958 Descending Southern California TRACON
Fri 08:35:45 PM 32.6833 -116.9667 270° West 196 226 3,700 -991 Descending Southern California TRACON
Fri 08:36:40 PM 32.7000 -117.0167 292° West 169 194 2,600 -1,200 Descending Southern California TRACON

Login

Don't have an account? Register now (free) for customized features, flight alerts, and more!